createdAt,value
2023-04-16T00:00:07.929Z,43.30
2023-04-16T00:02:39.354Z,43.30
2023-04-16T00:05:07.753Z,43.40
2023-04-16T00:07:36.071Z,43.30
2023-04-16T00:10:04.015Z,43.30
2023-04-16T00:12:31.755Z,43.30
2023-04-16T00:14:59.756Z,43.30
2023-04-16T00:17:27.623Z,43.30
2023-04-16T00:19:55.533Z,43.30
2023-04-16T00:22:23.306Z,43.30
2023-04-16T00:24:51.165Z,43.30
2023-04-16T00:27:19.659Z,43.30
2023-04-16T00:29:47.721Z,43.40
2023-04-16T00:32:15.687Z,43.30
2023-04-16T00:34:43.434Z,43.40
2023-04-16T00:37:11.159Z,43.30
2023-04-16T00:39:38.921Z,43.30
2023-04-16T00:42:06.728Z,43.30
2023-04-16T00:44:37.188Z,43.30
2023-04-16T00:47:07.684Z,43.30
2023-04-16T00:49:36.490Z,43.30
2023-04-16T00:52:04.507Z,43.30
2023-04-16T00:54:32.625Z,43.30
2023-04-16T00:57:01.671Z,43.30
2023-04-16T00:59:29.886Z,43.30
2023-04-16T01:01:57.679Z,43.30
2023-04-16T01:04:26.351Z,43.30
2023-04-16T01:06:54.534Z,43.30
2023-04-16T01:09:22.333Z,43.30
2023-04-16T01:11:50.075Z,43.30
2023-04-16T01:14:17.796Z,43.30
2023-04-16T01:16:45.679Z,43.40
2023-04-16T01:19:13.383Z,43.40
2023-04-16T01:21:41.237Z,43.40
2023-04-16T01:24:09.095Z,43.30
2023-04-16T01:26:36.814Z,43.30
2023-04-16T01:29:04.587Z,43.40
2023-04-16T01:31:32.366Z,43.30
2023-04-16T01:34:15.225Z,43.30
2023-04-16T01:36:43.154Z,43.30
2023-04-16T01:39:15.580Z,43.20
2023-04-16T01:41:43.788Z,43.30
2023-04-16T01:44:11.537Z,43.30
2023-04-16T01:46:39.910Z,43.30
2023-04-16T01:49:07.830Z,43.30
2023-04-16T01:51:35.684Z,43.30
2023-04-16T01:54:04.662Z,43.20
2023-04-16T01:56:32.402Z,43.30
2023-04-16T01:59:00.353Z,43.30
2023-04-16T02:01:34.092Z,43.20
2023-04-16T02:04:01.975Z,43.20
2023-04-16T02:06:29.859Z,43.20
2023-04-16T02:08:57.567Z,43.20
2023-04-16T02:11:26.692Z,43.30
2023-04-16T02:13:55.609Z,43.30
2023-04-16T02:16:24.120Z,43.20
2023-04-16T02:19:00.736Z,43.30
2023-04-16T02:21:31.900Z,43.30
2023-04-16T02:24:00.164Z,43.20
2023-04-16T02:26:31.051Z,43.20
2023-04-16T02:29:04.593Z,43.20
2023-04-16T02:31:40.047Z,43.20
2023-04-16T02:34:08.919Z,43.20
2023-04-16T02:36:36.865Z,43.20
2023-04-16T02:39:05.174Z,43.20
2023-04-16T02:41:33.198Z,43.20
2023-04-16T02:44:01.092Z,43.30
2023-04-16T02:46:29.158Z,43.30
2023-04-16T02:48:56.995Z,43.20
2023-04-16T02:51:24.696Z,43.20
2023-04-16T02:53:52.493Z,43.10
2023-04-16T02:56:20.453Z,43.20
2023-04-16T02:58:48.344Z,43.20
2023-04-16T03:01:16.479Z,43.20
2023-04-16T03:03:44.490Z,43.20
2023-04-16T03:06:12.975Z,43.20
2023-04-16T03:08:40.821Z,43.20
2023-04-16T03:11:08.645Z,43.20
2023-04-16T03:13:36.404Z,43.30
2023-04-16T03:16:04.222Z,43.10
2023-04-16T03:18:32.177Z,43.20
2023-04-16T03:20:59.997Z,43.20
2023-04-16T03:23:28.502Z,43.20
2023-04-16T03:25:56.405Z,43.20
2023-04-16T03:28:26.329Z,43.20
2023-04-16T03:30:54.488Z,43.30
2023-04-16T03:33:22.894Z,43.30
2023-04-16T03:35:57.263Z,43.30
2023-04-16T03:38:27.244Z,43.20
2023-04-16T03:40:57.363Z,43.20
2023-04-16T03:43:25.220Z,43.30
2023-04-16T03:45:53.396Z,43.30
2023-04-16T03:48:24.135Z,43.20
2023-04-16T03:50:51.936Z,43.10
2023-04-16T03:53:21.517Z,43.30
2023-04-16T03:55:51.635Z,43.20
2023-04-16T03:58:21.037Z,43.20
2023-04-16T04:00:49.022Z,43.20
2023-04-16T04:03:18.750Z,43.20
2023-04-16T04:05:49.427Z,43.20
2023-04-16T04:08:24.897Z,43.20
2023-04-16T04:10:52.874Z,43.30
2023-04-16T04:13:22.518Z,43.20
2023-04-16T04:15:51.852Z,43.20
2023-04-16T04:18:20.471Z,43.20
2023-04-16T04:20:48.198Z,43.20
2023-04-16T04:23:18.537Z,43.20
2023-04-16T04:25:47.507Z,43.20
2023-04-16T04:28:15.683Z,43.20
2023-04-16T04:30:43.594Z,43.10
2023-04-16T04:33:11.566Z,43.10
2023-04-16T04:35:39.923Z,43.20
2023-04-16T04:38:09.734Z,43.20
2023-04-16T04:40:37.639Z,43.20
2023-04-16T04:43:05.564Z,43.20
2023-04-16T04:45:35.020Z,43.30
2023-04-16T04:48:03.237Z,43.20
2023-04-16T04:50:31.438Z,43.20
2023-04-16T04:52:59.234Z,43.20
2023-04-16T04:55:27.900Z,43.30
2023-04-16T04:57:55.982Z,43.20
2023-04-16T05:00:23.830Z,43.20
2023-04-16T05:02:55.424Z,43.30
2023-04-16T05:05:23.338Z,43.30
2023-04-16T05:07:51.461Z,43.30
2023-04-16T05:10:20.960Z,43.30
2023-04-16T05:12:49.200Z,43.20
2023-04-16T05:15:17.533Z,43.20
2023-04-16T05:17:45.759Z,43.20
2023-04-16T05:20:13.664Z,43.30
2023-04-16T05:22:41.573Z,43.20
2023-04-16T05:25:09.558Z,43.30
2023-04-16T05:27:37.733Z,43.30
2023-04-16T05:30:06.336Z,43.40
2023-04-16T05:32:34.291Z,43.30
2023-04-16T05:35:02.637Z,43.40
2023-04-16T05:37:30.668Z,43.20
2023-04-16T05:39:58.486Z,43.30
2023-04-16T05:42:26.365Z,43.30
2023-04-16T05:44:54.186Z,43.30
2023-04-16T05:47:22.116Z,43.40
2023-04-16T05:49:50.040Z,43.30
2023-04-16T05:52:17.823Z,43.40
2023-04-16T05:54:45.746Z,43.30
2023-04-16T05:57:14.636Z,43.40
2023-04-16T05:59:42.552Z,43.30
2023-04-16T06:02:10.507Z,43.30
2023-04-16T06:04:38.474Z,43.40
2023-04-16T06:07:06.392Z,43.30
2023-04-16T06:09:34.319Z,43.40
2023-04-16T06:12:02.414Z,43.30
2023-04-16T06:14:30.434Z,43.40
2023-04-16T06:16:58.354Z,43.40
2023-04-16T06:19:26.154Z,43.40
2023-04-16T06:21:54.290Z,43.40
2023-04-16T06:24:22.253Z,43.30
2023-04-16T06:26:50.081Z,43.40
2023-04-16T06:29:18.228Z,43.40
2023-04-16T06:31:46.496Z,43.40
2023-04-16T06:34:14.484Z,43.40
2023-04-16T06:36:42.335Z,43.50
2023-04-16T06:39:10.373Z,43.40
2023-04-16T06:41:38.344Z,43.40
2023-04-16T06:44:06.473Z,43.40
2023-04-16T06:46:34.546Z,43.50
2023-04-16T06:49:02.437Z,43.40
2023-04-16T06:51:30.833Z,43.50
2023-04-16T06:53:58.751Z,43.40
2023-04-16T06:56:26.691Z,43.50
2023-04-16T06:58:57.855Z,43.50
2023-04-16T07:01:26.107Z,43.60
2023-04-16T07:03:55.066Z,43.60
2023-04-16T07:06:23.073Z,43.60
2023-04-16T07:08:50.896Z,43.60
2023-04-16T07:11:19.529Z,43.70
2023-04-16T07:13:47.486Z,43.70
2023-04-16T07:16:15.353Z,43.70
2023-04-16T07:18:43.266Z,43.70
2023-04-16T07:21:11.193Z,43.80
2023-04-16T07:23:39.078Z,43.70
2023-04-16T07:26:07.080Z,43.70
2023-04-16T07:28:35.006Z,43.70
2023-04-16T07:31:03.116Z,43.70
2023-04-16T07:33:30.973Z,43.70
2023-04-16T07:35:58.835Z,43.70
2023-04-16T07:38:26.652Z,43.80
2023-04-16T07:40:56.801Z,43.80
2023-04-16T07:43:24.898Z,43.80
2023-04-16T07:45:52.721Z,43.80
2023-04-16T07:48:22.406Z,43.90
2023-04-16T07:50:50.495Z,43.90
2023-04-16T07:53:18.376Z,43.90
2023-04-16T07:55:46.231Z,43.90
2023-04-16T07:58:14.166Z,43.90
2023-04-16T08:00:42.148Z,44.00
2023-04-16T08:03:10.178Z,44.00
2023-04-16T08:05:38.241Z,44.10
2023-04-16T08:08:06.278Z,44.20
2023-04-16T08:10:34.396Z,44.20
2023-04-16T08:13:02.347Z,44.10
2023-04-16T08:15:31.037Z,44.20
2023-04-16T08:17:59.739Z,44.30
2023-04-16T08:20:27.897Z,44.20
2023-04-16T08:22:55.745Z,44.30
2023-04-16T08:25:24.873Z,44.30
2023-04-16T08:27:52.817Z,44.20
2023-04-16T08:30:22.277Z,44.30
2023-04-16T08:32:50.793Z,44.30
2023-04-16T08:35:18.736Z,44.30
2023-04-16T08:37:46.666Z,44.20
2023-04-16T08:40:14.707Z,44.40
2023-04-16T08:42:53.277Z,44.30
2023-04-16T08:45:21.471Z,44.40
2023-04-16T08:47:51.222Z,44.40
2023-04-16T08:50:24.407Z,44.50
2023-04-16T08:52:53.988Z,44.60
2023-04-16T08:55:36.106Z,44.50
2023-04-16T08:58:16.386Z,44.40
2023-04-16T09:00:46.256Z,44.70
2023-04-16T09:03:14.240Z,44.60
2023-04-16T09:05:44.038Z,44.50
2023-04-16T09:08:12.656Z,44.50
2023-04-16T09:10:40.525Z,44.40
2023-04-16T09:13:11.757Z,44.60
2023-04-16T09:15:41.189Z,44.50
2023-04-16T09:18:09.122Z,44.50
2023-04-16T09:20:37.032Z,44.60
2023-04-16T09:23:05.085Z,44.60
2023-04-16T09:25:37.391Z,44.70
2023-04-16T09:28:05.401Z,44.60
2023-04-16T09:30:34.667Z,44.60
2023-04-16T09:33:35.062Z,44.60
2023-04-16T09:36:02.998Z,44.70
2023-04-16T09:38:47.653Z,44.60
2023-04-16T09:41:16.818Z,44.70
2023-04-16T09:43:58.756Z,44.70
2023-04-16T09:46:35.406Z,44.70
2023-04-16T09:49:10.424Z,44.60
2023-04-16T09:51:41.059Z,44.70
2023-04-16T09:54:09.689Z,44.70
2023-04-16T09:56:45.017Z,44.70
2023-04-16T09:59:22.568Z,44.60
2023-04-16T10:01:51.214Z,44.80
2023-04-16T10:04:20.192Z,44.70
2023-04-16T10:07:06.193Z,44.70
2023-04-16T10:09:38.951Z,44.80
2023-04-16T10:12:07.451Z,44.90
2023-04-16T10:14:35.970Z,44.90
2023-04-16T10:17:06.445Z,44.90
2023-04-16T10:19:35.633Z,44.90
2023-04-16T10:22:04.217Z,44.90
2023-04-16T10:24:33.615Z,45.10
2023-04-16T10:27:02.122Z,45.10
2023-04-16T10:29:32.049Z,45.00
2023-04-16T10:32:01.459Z,45.30
2023-04-16T10:34:31.425Z,45.30
2023-04-16T10:36:59.381Z,45.30
2023-04-16T10:39:34.522Z,45.00
2023-04-16T10:42:12.998Z,45.10
2023-04-16T10:44:44.361Z,44.90
2023-04-16T10:47:14.388Z,45.00
2023-04-16T10:49:43.845Z,45.10
2023-04-16T10:52:17.182Z,45.20
2023-04-16T10:54:46.714Z,45.00
2023-04-16T10:57:19.767Z,45.10
2023-04-16T10:59:49.206Z,45.00
2023-04-16T11:02:18.522Z,45.10
2023-04-16T11:04:48.723Z,45.10
2023-04-16T11:07:50.049Z,45.00
2023-04-16T11:10:17.958Z,45.10
2023-04-16T11:12:49.376Z,45.10
2023-04-16T11:15:22.074Z,45.10
2023-04-16T11:17:51.929Z,45.00
2023-04-16T11:20:24.897Z,45.10
2023-04-16T11:22:55.111Z,45.10
2023-04-16T11:25:24.916Z,45.10
2023-04-16T11:27:53.570Z,45.10
2023-04-16T11:30:35.716Z,45.20
2023-04-16T11:33:09.298Z,45.20
2023-04-16T11:35:39.633Z,45.20
2023-04-16T11:38:08.111Z,45.20
2023-04-16T11:40:36.515Z,45.20
2023-04-16T11:43:15.855Z,45.20
2023-04-16T11:46:01.615Z,45.20
2023-04-16T11:48:50.194Z,45.20
2023-04-16T11:51:19.794Z,45.20
2023-04-16T11:53:53.088Z,45.30
2023-04-16T11:56:28.497Z,45.30
2023-04-16T11:59:09.419Z,45.30
2023-04-16T12:01:39.385Z,45.30
2023-04-16T12:04:08.211Z,45.20
2023-04-16T12:06:36.363Z,45.30
2023-04-16T12:09:24.165Z,45.40
2023-04-16T12:11:52.196Z,45.30
2023-04-16T12:14:20.599Z,45.30
2023-04-16T12:16:48.583Z,45.40
2023-04-16T12:19:16.586Z,45.40
2023-04-16T12:21:46.520Z,45.50
2023-04-16T12:24:24.243Z,45.50
2023-04-16T12:27:03.384Z,45.30
2023-04-16T12:29:32.057Z,45.40
2023-04-16T12:31:59.996Z,45.40
2023-04-16T12:34:49.383Z,45.40
2023-04-16T12:37:16.123Z,45.40
2023-04-16T12:39:44.406Z,45.40
2023-04-16T12:42:13.126Z,45.30
2023-04-16T12:44:41.207Z,45.40
2023-04-16T12:47:09.118Z,45.40
2023-04-16T12:49:37.665Z,45.40
2023-04-16T12:52:06.445Z,45.30
2023-04-16T12:54:34.790Z,45.40
2023-04-16T12:57:02.637Z,45.40
2023-04-16T12:59:30.612Z,45.30
2023-04-16T13:01:58.519Z,45.30
2023-04-16T13:04:26.906Z,45.40
2023-04-16T13:06:54.908Z,45.30
2023-04-16T13:09:22.907Z,45.50
2023-04-16T13:11:50.958Z,45.40
2023-04-16T13:14:19.494Z,45.50
2023-04-16T13:16:47.379Z,45.50
2023-04-16T13:19:16.174Z,45.50
2023-04-16T13:21:44.050Z,45.50
2023-04-16T13:24:11.938Z,45.50
2023-04-16T13:26:39.811Z,45.60
2023-04-16T13:29:08.003Z,45.70
2023-04-16T13:31:36.350Z,45.60
2023-04-16T13:34:04.977Z,45.50
2023-04-16T13:36:33.616Z,45.60
2023-04-16T13:39:03.124Z,45.40
2023-04-16T13:41:31.819Z,45.40
2023-04-16T13:43:59.727Z,45.40
2023-04-16T13:46:29.163Z,45.40
2023-04-16T13:48:57.136Z,45.70
2023-04-16T13:51:25.417Z,45.60
2023-04-16T13:53:56.074Z,45.40
2023-04-16T13:56:24.060Z,46.10
2023-04-16T13:58:52.399Z,46.00
2023-04-16T14:01:20.782Z,45.90
2023-04-16T14:03:49.824Z,45.50
2023-04-16T14:06:18.337Z,45.50
2023-04-16T14:08:46.303Z,45.20
2023-04-16T14:11:14.314Z,45.00
2023-04-16T14:13:42.492Z,45.00
2023-04-16T14:16:10.956Z,45.00
2023-04-16T14:18:42.528Z,44.70
2023-04-16T14:21:10.540Z,45.00
2023-04-16T14:23:38.377Z,45.80
2023-04-16T14:26:06.279Z,45.40
2023-04-16T14:28:35.646Z,45.60
2023-04-16T14:31:03.482Z,45.20
2023-04-16T14:33:32.465Z,45.30
2023-04-16T14:36:02.715Z,45.30
2023-04-16T14:38:31.544Z,45.40
2023-04-16T14:41:00.618Z,45.40
2023-04-16T14:43:28.593Z,45.40
2023-04-16T14:45:58.692Z,45.80
2023-04-16T14:48:26.791Z,45.80
2023-04-16T14:50:54.722Z,45.90
2023-04-16T14:53:23.863Z,45.90
2023-04-16T14:55:54.827Z,45.90
2023-04-16T14:58:22.696Z,45.90
2023-04-16T15:00:50.663Z,45.80
2023-04-16T15:03:18.816Z,45.90
2023-04-16T15:05:50.919Z,45.80
2023-04-16T15:08:18.787Z,45.70
2023-04-16T15:10:46.653Z,45.70
2023-04-16T15:13:14.603Z,45.80
2023-04-16T15:15:42.894Z,45.70
2023-04-16T15:18:10.998Z,45.80
2023-04-16T15:20:38.924Z,46.00
2023-04-16T15:23:07.138Z,45.90
2023-04-16T15:25:35.047Z,45.90
2023-04-16T15:28:03.106Z,45.80
2023-04-16T15:30:31.559Z,45.70
2023-04-16T15:32:59.427Z,45.80
2023-04-16T15:35:27.408Z,45.80
2023-04-16T15:37:55.494Z,46.00
2023-04-16T15:40:24.557Z,45.90
2023-04-16T15:42:52.590Z,46.10
2023-04-16T15:45:21.328Z,46.00
2023-04-16T15:47:51.564Z,46.10
2023-04-16T15:50:20.535Z,46.10
2023-04-16T15:52:48.479Z,46.00
2023-04-16T15:55:17.941Z,46.00
2023-04-16T15:57:46.021Z,46.00
2023-04-16T16:00:15.138Z,45.90
2023-04-16T16:02:47.684Z,45.80
2023-04-16T16:05:16.977Z,45.80
2023-04-16T16:07:45.137Z,45.80
2023-04-16T16:10:13.489Z,45.70
2023-04-16T16:12:41.916Z,45.80
2023-04-16T16:15:11.358Z,45.70
2023-04-16T16:17:40.858Z,45.60
2023-04-16T16:20:10.712Z,45.70
2023-04-16T16:22:39.291Z,45.50
2023-04-16T16:25:07.782Z,45.50
2023-04-16T16:27:36.586Z,45.50
2023-04-16T16:30:07.367Z,45.40
2023-04-16T16:32:35.313Z,45.50
2023-04-16T16:35:03.396Z,45.40
2023-04-16T16:37:31.388Z,45.40
2023-04-16T16:39:59.207Z,45.50
2023-04-16T16:42:27.434Z,45.40
2023-04-16T16:44:57.320Z,45.40
2023-04-16T16:47:25.593Z,45.50
2023-04-16T16:49:54.866Z,45.60
2023-04-16T16:52:24.214Z,45.60
2023-04-16T16:54:54.026Z,45.60
2023-04-16T16:57:21.902Z,45.60
2023-04-16T16:59:51.129Z,45.70
2023-04-16T17:02:19.158Z,45.70
2023-04-16T17:04:47.050Z,45.80
2023-04-16T17:07:15.027Z,45.80
2023-04-16T17:09:43.049Z,45.80
2023-04-16T17:12:11.070Z,45.80
2023-04-16T17:14:39.544Z,45.80
2023-04-16T17:17:07.428Z,45.90
2023-04-16T17:19:35.362Z,45.80
2023-04-16T17:22:03.638Z,45.80
2023-04-16T17:24:31.532Z,45.90
2023-04-16T17:26:59.362Z,45.80
2023-04-16T17:29:27.324Z,45.70
2023-04-16T17:31:57.310Z,45.70
2023-04-16T17:34:25.200Z,45.70
2023-04-16T17:36:53.117Z,45.70
2023-04-16T17:39:21.162Z,45.60
2023-04-16T17:41:54.325Z,45.60
2023-04-16T17:44:23.273Z,45.50
2023-04-16T17:46:51.260Z,45.60
2023-04-16T17:49:19.135Z,45.60
2023-04-16T17:51:47.090Z,45.60
2023-04-16T17:54:15.019Z,45.60
2023-04-16T17:56:42.949Z,45.60
2023-04-16T17:59:10.780Z,45.50
2023-04-16T18:01:38.964Z,45.50
2023-04-16T18:04:07.167Z,45.50
2023-04-16T18:06:35.569Z,45.50
2023-04-16T18:09:05.897Z,45.60
2023-04-16T18:11:34.030Z,45.50
2023-04-16T18:14:02.061Z,45.50
2023-04-16T18:16:29.920Z,45.50
2023-04-16T18:18:57.909Z,45.40
2023-04-16T18:21:26.281Z,45.40
2023-04-16T18:23:54.070Z,45.50
2023-04-16T18:26:22.944Z,45.40
2023-04-16T18:28:51.169Z,45.40
2023-04-16T18:31:21.366Z,45.40
2023-04-16T18:33:57.453Z,45.40
2023-04-16T18:36:27.009Z,45.40
2023-04-16T18:39:02.248Z,45.50
2023-04-16T18:41:31.463Z,45.40
2023-04-16T18:43:59.593Z,45.40
2023-04-16T18:46:27.783Z,45.40
2023-04-16T18:48:55.836Z,45.30
2023-04-16T18:51:23.721Z,45.30
2023-04-16T18:53:51.798Z,45.30
2023-04-16T18:56:19.944Z,45.30
2023-04-16T18:58:47.963Z,45.30
2023-04-16T19:01:16.753Z,45.30
2023-04-16T19:03:45.616Z,45.30
2023-04-16T19:06:13.558Z,45.30
2023-04-16T19:08:41.257Z,45.30
2023-04-16T19:11:09.164Z,45.20
2023-04-16T19:13:38.207Z,45.30
2023-04-16T19:16:11.286Z,45.20
2023-04-16T19:18:39.729Z,45.30
2023-04-16T19:21:07.718Z,45.20
2023-04-16T19:23:35.818Z,45.20
2023-04-16T19:26:04.015Z,45.30
2023-04-16T19:28:31.966Z,45.20
2023-04-16T19:30:59.859Z,45.20
2023-04-16T19:33:27.733Z,45.20
2023-04-16T19:35:55.612Z,45.30
2023-04-16T19:38:23.488Z,45.20
2023-04-16T19:40:51.347Z,45.10
2023-04-16T19:43:19.399Z,45.20
2023-04-16T19:45:52.467Z,45.10
2023-04-16T19:48:21.562Z,45.20
2023-04-16T19:50:49.472Z,45.20
2023-04-16T19:53:17.467Z,45.20
2023-04-16T19:55:45.685Z,45.20
2023-04-16T19:58:14.803Z,45.10
2023-04-16T20:00:43.323Z,45.20
2023-04-16T20:03:11.610Z,45.20
2023-04-16T20:05:39.554Z,45.10
2023-04-16T20:08:07.461Z,45.20
2023-04-16T20:10:35.277Z,45.20
2023-04-16T20:13:03.117Z,45.30
2023-04-16T20:15:30.937Z,45.20
2023-04-16T20:17:58.805Z,45.20
2023-04-16T20:20:26.656Z,45.20
2023-04-16T20:22:54.470Z,45.10
2023-04-16T20:25:22.841Z,45.20
2023-04-16T20:27:50.816Z,45.20
2023-04-16T20:30:18.687Z,45.20
2023-04-16T20:32:46.624Z,45.20
2023-04-16T20:35:14.783Z,45.20
2023-04-16T20:37:43.259Z,45.20
2023-04-16T20:40:11.418Z,45.10
2023-04-16T20:42:40.935Z,45.10
2023-04-16T20:45:09.748Z,45.10
2023-04-16T20:47:37.732Z,45.20
2023-04-16T20:50:06.030Z,45.20
2023-04-16T20:52:33.861Z,45.20
2023-04-16T20:55:01.670Z,45.10
2023-04-16T20:57:32.174Z,45.20
2023-04-16T20:59:59.960Z,45.20
2023-04-16T21:02:28.508Z,45.20
2023-04-16T21:04:56.707Z,45.10
2023-04-16T21:07:24.607Z,45.10
2023-04-16T21:09:52.441Z,45.10
2023-04-16T21:12:20.363Z,45.10
2023-04-16T21:14:48.217Z,45.10
2023-04-16T21:17:16.100Z,45.20
2023-04-16T21:19:43.928Z,45.10
2023-04-16T21:22:11.773Z,45.20
2023-04-16T21:24:39.609Z,45.20
2023-04-16T21:27:07.458Z,45.20
2023-04-16T21:29:35.378Z,45.20
2023-04-16T21:32:03.279Z,45.10
2023-04-16T21:34:31.190Z,45.10
2023-04-16T21:36:59.408Z,45.20
2023-04-16T21:39:30.995Z,45.20
2023-04-16T21:41:58.786Z,45.10
2023-04-16T21:44:26.485Z,45.10
2023-04-16T21:46:54.331Z,45.10
2023-04-16T21:49:22.349Z,45.10
2023-04-16T21:51:50.432Z,45.10
2023-04-16T21:54:20.205Z,45.20
2023-04-16T21:56:47.935Z,45.10
2023-04-16T21:59:15.964Z,45.10
2023-04-16T22:01:43.750Z,45.10
2023-04-16T22:04:12.231Z,45.10
2023-04-16T22:06:40.625Z,45.10
2023-04-16T22:09:09.552Z,45.20
2023-04-16T22:11:38.365Z,45.10
2023-04-16T22:14:08.363Z,45.10
2023-04-16T22:16:36.142Z,45.10
2023-04-16T22:19:03.918Z,45.10
2023-04-16T22:21:31.642Z,45.10
2023-04-16T22:23:59.447Z,45.10
2023-04-16T22:26:27.156Z,45.10
2023-04-16T22:28:54.865Z,45.10
2023-04-16T22:31:22.560Z,45.10
2023-04-16T22:33:50.349Z,45.10
2023-04-16T22:36:18.071Z,45.10
2023-04-16T22:38:45.860Z,45.00
2023-04-16T22:41:13.732Z,45.20
2023-04-16T22:43:41.484Z,45.10
2023-04-16T22:46:09.655Z,45.10
2023-04-16T22:48:38.865Z,45.00
2023-04-16T22:51:08.770Z,45.00
2023-04-16T22:53:36.949Z,45.10
2023-04-16T22:56:05.090Z,45.00
2023-04-16T22:58:32.846Z,45.00
2023-04-16T23:01:01.888Z,45.00
2023-04-16T23:03:30.804Z,45.00
2023-04-16T23:05:58.811Z,45.00
2023-04-16T23:08:26.900Z,45.00
2023-04-16T23:10:54.753Z,45.00
2023-04-16T23:13:22.443Z,45.10
2023-04-16T23:15:50.355Z,45.00
2023-04-16T23:18:18.451Z,44.90
2023-04-16T23:20:46.175Z,44.90
2023-04-16T23:23:13.875Z,45.00
2023-04-16T23:25:42.062Z,45.00
2023-04-16T23:28:09.934Z,45.00
2023-04-16T23:30:37.778Z,45.00
2023-04-16T23:33:05.624Z,44.90
2023-04-16T23:35:33.452Z,44.90
2023-04-16T23:38:01.309Z,45.00
2023-04-16T23:40:29.181Z,44.90
2023-04-16T23:42:56.920Z,45.00
2023-04-16T23:45:24.726Z,44.90
2023-04-16T23:47:52.489Z,45.00
2023-04-16T23:50:20.418Z,44.90
2023-04-16T23:52:48.219Z,44.90
2023-04-16T23:55:15.988Z,45.00
2023-04-16T23:57:43.753Z,45.00
